Time;durP1;ratioP1;P1;durP2;ratioP2;P2;SDS_P1;SDS_P2;PMS_P1;PMS_P2;Temp;Humidity;BMP_temperature;BMP_pressure;BME280_temperature;BME280_humidity;BME280_pressure;Samples;Min_cycle;Max_cycle;Signal;HPM_P1;HPM_P2
2023/10/21 00:02:07;;;;;;;38.33;15.85;;;;;;;;;;5022847;28;20278;-75
2023/10/21 00:04:32;;;;;;;33.03;14.43;;;;;;;;;;5026359;28;20194;-75
2023/10/21 00:06:58;;;;;;;30.83;15.18;;;;;;;;;;5029701;28;20182;-75
2023/10/21 00:09:23;;;;;;;29.60;14.70;;;;;;;;;;5032217;28;20226;-74
2023/10/21 00:11:48;;;;;;;26.52;13.48;;;;;;;;;;5029701;28;20182;-74
2023/10/21 00:14:14;;;;;;;29.92;14.90;;;;;;;;;;5026576;28;20183;-75
2023/10/21 00:16:39;;;;;;;27.23;15.05;;;;;;;;;;5035112;28;20282;-75
2023/10/21 00:19:05;;;;;;;36.42;15.00;;;;;;;;;;5008762;28;20203;-74
2023/10/21 00:21:30;;;;;;;24.08;13.60;;;;;;;;;;5029135;28;20289;-75
2023/10/21 00:23:56;;;;;;;30.23;13.52;;;;;;;;;;5019571;28;20209;-74
2023/10/21 00:26:22;;;;;;;29.38;13.25;;;;;;;;;;5025531;28;20190;-74
2023/10/21 00:28:48;;;;;;;34.55;14.27;;;;;;;;;;5027986;28;20221;-74
2023/10/21 00:31:13;;;;;;;28.27;13.50;;;;;;;;;;5021338;28;20222;-75
2023/10/21 00:33:38;;;;;;;29.40;13.82;;;;;;;;;;5022592;28;20220;-75
2023/10/21 00:36:04;;;;;;;28.58;13.63;;;;;;;;;;5028690;28;20225;-74
2023/10/21 00:38:29;;;;;;;26.88;12.98;;;;;;;;;;5029363;28;20688;-74
2023/10/21 00:40:56;;;;;;;29.45;12.00;;;;;;;;;;5030162;28;20594;-74
2023/10/21 00:43:42;;;;;;;25.83;12.82;;;;;;;;;;5031240;28;20186;-74
2023/10/21 00:46:13;;;;;;;20.52;11.68;;;;;;;;;;5026663;28;20236;-75
2023/10/21 00:48:39;;;;;;;25.58;12.27;;;;;;;;;;5015866;28;20265;-74
2023/10/21 00:51:05;;;;;;;28.27;11.57;;;;;;;;;;5024647;28;20186;-74
2023/10/21 00:53:31;;;;;;;24.02;11.95;;;;;;;;;;5045623;28;20186;-74
2023/10/21 00:55:58;;;;;;;27.92;12.05;;;;;;;;;;5013416;28;20339;-74
2023/10/21 00:58:25;;;;;;;27.58;12.27;;;;;;;;;;5038318;28;20178;-75
2023/10/21 01:00:51;;;;;;;32.25;12.35;;;;;;;;;;5025204;28;20208;-75
2023/10/21 01:03:17;;;;;;;34.22;12.82;;;;;;;;;;5026325;28;20287;-74
2023/10/21 01:05:42;;;;;;;36.38;12.52;;;;;;;;;;5037537;28;20183;-75
2023/10/21 01:08:07;;;;;;;23.65;10.98;;;;;;;;;;5031829;28;20209;-74
2023/10/21 01:10:33;;;;;;;22.90;11.50;;;;;;;;;;5020673;28;20628;-75
2023/10/21 01:12:58;;;;;;;24.42;10.85;;;;;;;;;;5014783;28;20187;-74
2023/10/21 01:15:23;;;;;;;25.23;11.40;;;;;;;;;;5030718;28;20271;-74
2023/10/21 01:17:52;;;;;;;24.52;11.98;;;;;;;;;;5030090;28;20202;-74
2023/10/21 01:20:17;;;;;;;27.35;11.82;;;;;;;;;;5025934;28;20201;-74
2023/10/21 01:22:43;;;;;;;29.88;12.35;;;;;;;;;;5025136;28;20194;-74
2023/10/21 01:25:09;;;;;;;25.60;10.95;;;;;;;;;;5000006;28;20195;-74
2023/10/21 01:27:34;;;;;;;29.55;12.55;;;;;;;;;;5025650;28;20541;-74
2023/10/21 01:30:00;;;;;;;21.88;11.90;;;;;;;;;;5030254;28;20201;-75
2023/10/21 01:32:25;;;;;;;26.35;13.05;;;;;;;;;;5006439;28;20218;-74
2023/10/21 01:34:51;;;;;;;26.35;12.05;;;;;;;;;;5016201;28;20190;-75
2023/10/21 01:37:16;;;;;;;29.60;12.85;;;;;;;;;;5002543;28;20195;-75
2023/10/21 01:39:42;;;;;;;27.75;12.70;;;;;;;;;;5010079;28;20190;-75
2023/10/21 01:42:08;;;;;;;32.78;13.75;;;;;;;;;;5042084;28;20220;-74
2023/10/21 01:44:34;;;;;;;27.77;12.52;;;;;;;;;;5027287;28;20308;-75
2023/10/21 01:47:00;;;;;;;29.20;12.48;;;;;;;;;;5026776;28;20234;-74
2023/10/21 01:49:25;;;;;;;20.83;11.35;;;;;;;;;;5039975;28;20252;-74
2023/10/21 01:51:51;;;;;;;23.27;12.32;;;;;;;;;;5028019;28;20201;-73
2023/10/21 01:54:16;;;;;;;27.92;12.13;;;;;;;;;;5030182;28;20663;-75
2023/10/21 01:56:41;;;;;;;24.08;12.57;;;;;;;;;;5026655;28;20195;-75
2023/10/21 01:59:08;;;;;;;24.92;13.07;;;;;;;;;;5005310;28;20613;-74
2023/10/21 02:01:34;;;;;;;25.73;12.48;;;;;;;;;;5026981;28;20205;-74
2023/10/21 02:04:00;;;;;;;30.75;13.82;;;;;;;;;;5023769;28;20293;-74
2023/10/21 02:06:25;;;;;;;30.25;13.98;;;;;;;;;;5028092;28;20289;-74
2023/10/21 02:08:51;;;;;;;27.52;13.23;;;;;;;;;;5030442;28;20237;-74
2023/10/21 02:11:21;;;;;;;31.02;14.25;;;;;;;;;;5025768;28;20474;-76
2023/10/21 02:13:46;;;;;;;27.80;13.63;;;;;;;;;;5023007;28;20529;-74
2023/10/21 02:16:12;;;;;;;32.10;13.65;;;;;;;;;;5029386;28;20299;-74
2023/10/21 02:18:37;;;;;;;29.83;13.68;;;;;;;;;;5029718;28;20196;-73
2023/10/21 02:21:06;;;;;;;30.20;14.00;;;;;;;;;;5031449;28;20212;-75
2023/10/21 02:23:32;;;;;;;36.10;14.57;;;;;;;;;;5023275;28;20194;-75
2023/10/21 02:26:03;;;;;;;30.70;14.18;;;;;;;;;;5021237;28;20190;-75
2023/10/21 02:28:29;;;;;;;33.13;13.88;;;;;;;;;;5025429;28;20217;-75
2023/10/21 02:30:55;;;;;;;37.88;14.32;;;;;;;;;;5030786;28;20187;-74
2023/10/21 02:33:21;;;;;;;42.92;15.95;;;;;;;;;;5033600;28;20275;-74
2023/10/21 02:35:51;;;;;;;52.17;14.52;;;;;;;;;;5017780;28;20214;-74
2023/10/21 02:38:17;;;;;;;32.35;14.10;;;;;;;;;;5013589;28;20529;-74
2023/10/21 02:40:43;;;;;;;31.92;13.98;;;;;;;;;;5003441;28;20241;-75
2023/10/21 02:43:09;;;;;;;28.48;13.40;;;;;;;;;;5026762;28;20649;-75
2023/10/21 02:45:35;;;;;;;28.50;13.80;;;;;;;;;;5026222;28;20190;-75
2023/10/21 02:48:00;;;;;;;27.90;13.88;;;;;;;;;;5029977;28;20539;-75
2023/10/21 02:50:26;;;;;;;27.90;14.95;;;;;;;;;;5022950;28;20191;-75
2023/10/21 02:52:52;;;;;;;29.00;14.30;;;;;;;;;;5024408;28;20190;-75
2023/10/21 02:55:18;;;;;;;31.67;14.90;;;;;;;;;;5027835;28;20201;-74
2023/10/21 02:57:44;;;;;;;31.52;14.75;;;;;;;;;;5029561;28;20228;-74
2023/10/21 03:00:15;;;;;;;35.45;14.32;;;;;;;;;;5026124;28;20187;-75
2023/10/21 03:02:41;;;;;;;28.90;14.20;;;;;;;;;;5021092;28;20332;-74
2023/10/21 03:05:07;;;;;;;46.17;15.32;;;;;;;;;;5023795;28;20225;-74
2023/10/21 03:07:33;;;;;;;36.78;14.43;;;;;;;;;;5026021;28;20190;-74
2023/10/21 03:10:00;;;;;;;35.80;14.05;;;;;;;;;;5030925;28;20193;-74
2023/10/21 03:12:25;;;;;;;33.83;14.30;;;;;;;;;;5028435;28;20210;-74
2023/10/21 03:14:51;;;;;;;36.85;14.40;;;;;;;;;;5056073;28;20350;-75
2023/10/21 03:17:16;;;;;;;32.85;14.45;;;;;;;;;;5034150;28;20237;-75
2023/10/21 03:19:41;;;;;;;29.27;15.40;;;;;;;;;;5033014;28;20642;-75
2023/10/21 03:22:07;;;;;;;36.78;15.10;;;;;;;;;;5030630;28;20233;-73
2023/10/21 03:24:32;;;;;;;28.35;14.35;;;;;;;;;;5038670;28;20728;-75
2023/10/21 03:26:58;;;;;;;32.67;13.10;;;;;;;;;;5025912;28;20197;-74
2023/10/21 03:29:23;;;;;;;29.42;13.57;;;;;;;;;;5025769;28;20177;-73
2023/10/21 03:31:48;;;;;;;33.20;13.80;;;;;;;;;;5022383;28;20186;-74
2023/10/21 03:34:14;;;;;;;27.48;13.57;;;;;;;;;;5016567;28;20594;-74
2023/10/21 03:36:39;;;;;;;31.88;13.73;;;;;;;;;;5039736;28;20298;-74
2023/10/21 03:39:05;;;;;;;32.70;13.88;;;;;;;;;;5024177;28;20263;-74
2023/10/21 03:41:31;;;;;;;25.80;12.88;;;;;;;;;;5008986;28;20178;-74
2023/10/21 03:43:57;;;;;;;33.42;13.63;;;;;;;;;;5032244;28;20212;-74
2023/10/21 03:46:24;;;;;;;22.15;12.43;;;;;;;;;;5022990;28;20210;-74
2023/10/21 03:48:50;;;;;;;30.60;12.95;;;;;;;;;;5043062;28;20186;-74
2023/10/21 03:51:15;;;;;;;28.60;12.23;;;;;;;;;;5025710;28;20178;-75
2023/10/21 03:53:42;;;;;;;26.88;12.93;;;;;;;;;;5031151;28;20230;-75
2023/10/21 03:56:10;;;;;;;24.10;12.55;;;;;;;;;;5016515;28;20225;-75
2023/10/21 03:58:37;;;;;;;25.67;12.25;;;;;;;;;;5023866;28;20226;-75
2023/10/21 04:01:02;;;;;;;27.45;12.25;;;;;;;;;;5034394;28;20182;-74
2023/10/21 04:03:28;;;;;;;26.33;12.23;;;;;;;;;;5007409;28;20265;-74
2023/10/21 04:05:54;;;;;;;25.52;12.05;;;;;;;;;;5027708;28;20179;-74
2023/10/21 04:08:24;;;;;;;31.08;12.35;;;;;;;;;;5021840;28;20209;-74
2023/10/21 04:10:49;;;;;;;15.25;10.13;;;;;;;;;;5021248;28;20664;-73
2023/10/21 04:13:15;;;;;;;20.38;11.32;;;;;;;;;;5025641;28;20265;-74
2023/10/21 04:15:41;;;;;;;21.27;11.32;;;;;;;;;;5030911;28;20257;-74
2023/10/21 04:18:06;;;;;;;20.98;11.60;;;;;;;;;;5026338;28;20256;-75
2023/10/21 04:20:32;;;;;;;19.48;10.93;;;;;;;;;;5019158;28;20545;-74
2023/10/21 04:22:58;;;;;;;22.02;11.30;;;;;;;;;;5036964;28;20197;-74
2023/10/21 04:25:24;;;;;;;22.63;10.85;;;;;;;;;;5017952;28;20237;-74
2023/10/21 04:27:49;;;;;;;22.98;12.00;;;;;;;;;;5040416;28;20194;-74
2023/10/21 04:30:15;;;;;;;25.48;11.98;;;;;;;;;;5032603;28;20199;-74
2023/10/21 04:32:41;;;;;;;24.15;12.20;;;;;;;;;;5023681;28;20182;-74
2023/10/21 04:35:08;;;;;;;21.02;12.23;;;;;;;;;;5019018;28;20210;-74
2023/10/21 04:37:34;;;;;;;27.77;12.05;;;;;;;;;;5031359;28;20655;-74
2023/10/21 04:39:59;;;;;;;22.65;11.43;;;;;;;;;;5030671;28;20187;-74
2023/10/21 04:42:25;;;;;;;15.23;10.15;;;;;;;;;;5019744;28;20183;-74
2023/10/21 04:44:51;;;;;;;27.20;12.23;;;;;;;;;;5028876;28;20666;-75
2023/10/21 04:47:17;;;;;;;27.17;12.98;;;;;;;;;;5023089;28;20179;-73
2023/10/21 04:49:45;;;;;;;24.20;13.05;;;;;;;;;;5012998;28;20536;-74
2023/10/21 04:52:11;;;;;;;22.52;12.18;;;;;;;;;;5030280;28;20625;-74
2023/10/21 04:54:37;;;;;;;29.13;13.55;;;;;;;;;;5027690;28;20201;-74
2023/10/21 04:57:02;;;;;;;23.08;12.43;;;;;;;;;;5017826;28;20206;-73
2023/10/21 04:59:28;;;;;;;20.08;12.15;;;;;;;;;;5018746;28;20899;-73
2023/10/21 05:01:53;;;;;;;33.78;13.98;;;;;;;;;;5025301;28;20209;-74
2023/10/21 05:04:19;;;;;;;28.90;13.40;;;;;;;;;;5026949;28;20236;-74
2023/10/21 05:06:44;;;;;;;23.95;13.02;;;;;;;;;;5031831;28;20224;-73
2023/10/21 05:09:12;;;;;;;25.23;13.77;;;;;;;;;;5020525;28;20485;-73
2023/10/21 05:11:38;;;;;;;29.60;14.27;;;;;;;;;;5044051;28;20293;-73
2023/10/21 05:14:03;;;;;;;25.77;13.52;;;;;;;;;;5028577;28;20206;-73
2023/10/21 05:16:29;;;;;;;27.88;14.25;;;;;;;;;;5031166;28;20234;-74
2023/10/21 05:18:54;;;;;;;27.10;14.27;;;;;;;;;;5031441;28;20249;-74
2023/10/21 05:21:20;;;;;;;27.00;13.45;;;;;;;;;;5033085;28;20201;-75
2023/10/21 05:23:46;;;;;;;19.95;12.48;;;;;;;;;;5044004;28;20307;-75
2023/10/21 05:26:11;;;;;;;21.48;13.68;;;;;;;;;;5018835;28;20182;-75
2023/10/21 05:28:37;;;;;;;24.17;14.50;;;;;;;;;;5030286;28;20316;-76
2023/10/21 05:31:03;;;;;;;27.85;15.30;;;;;;;;;;5030048;28;20213;-78
2023/10/21 05:33:29;;;;;;;26.85;15.82;;;;;;;;;;5041095;28;20197;-77
2023/10/21 05:36:00;;;;;;;19.00;13.52;;;;;;;;;;5038408;28;20217;-77
2023/10/21 05:38:26;;;;;;;31.77;15.13;;;;;;;;;;5041886;28;20190;-77
2023/10/21 05:40:52;;;;;;;26.65;14.93;;;;;;;;;;5021528;28;20194;-77
2023/10/21 05:43:17;;;;;;;29.25;15.70;;;;;;;;;;5019985;28;20194;-77
2023/10/21 05:45:43;;;;;;;30.05;16.05;;;;;;;;;;5044969;28;20230;-77
2023/10/21 05:48:09;;;;;;;25.50;14.18;;;;;;;;;;5033339;28;20190;-78
2023/10/21 05:50:36;;;;;;;27.50;15.60;;;;;;;;;;5028628;28;20186;-77
2023/10/21 05:53:03;;;;;;;27.70;14.77;;;;;;;;;;5043663;28;20280;-77
2023/10/21 05:55:29;;;;;;;29.98;15.90;;;;;;;;;;5018407;28;20186;-75
2023/10/21 05:57:54;;;;;;;30.27;15.63;;;;;;;;;;5016068;28;20182;-77
2023/10/21 06:00:20;;;;;;;27.13;15.90;;;;;;;;;;5029078;28;20175;-77
2023/10/21 06:02:45;;;;;;;30.20;16.48;;;;;;;;;;5029251;28;20197;-77
2023/10/21 06:05:15;;;;;;;32.78;17.27;;;;;;;;;;5027731;28;20186;-77
2023/10/21 06:07:41;;;;;;;34.42;17.15;;;;;;;;;;5027045;28;20652;-76
2023/10/21 06:10:08;;;;;;;27.85;16.10;;;;;;;;;;5048670;28;20190;-75
2023/10/21 06:12:33;;;;;;;34.22;16.48;;;;;;;;;;5007416;28;20697;-76
2023/10/21 06:14:59;;;;;;;25.58;16.77;;;;;;;;;;5038519;28;20236;-76
2023/10/21 06:17:25;;;;;;;26.55;17.13;;;;;;;;;;5007315;28;20283;-75
2023/10/21 06:19:52;;;;;;;37.00;18.38;;;;;;;;;;5020721;28;20547;-75
2023/10/21 06:22:18;;;;;;;30.80;18.05;;;;;;;;;;5042518;28;20186;-75
2023/10/21 06:24:43;;;;;;;39.38;19.08;;;;;;;;;;5023263;28;20194;-76
2023/10/21 06:27:09;;;;;;;28.58;17.88;;;;;;;;;;5038639;28;20217;-75
2023/10/21 06:29:35;;;;;;;31.63;17.85;;;;;;;;;;5031630;28;20239;-75
2023/10/21 06:32:01;;;;;;;32.15;17.98;;;;;;;;;;5007321;28;20546;-75
2023/10/21 06:34:26;;;;;;;36.85;17.92;;;;;;;;;;5036469;28;20195;-75
2023/10/21 06:36:51;;;;;;;25.67;17.02;;;;;;;;;;5028538;28;20245;-77
2023/10/21 06:39:18;;;;;;;29.65;17.05;;;;;;;;;;5039836;28;20205;-74
2023/10/21 06:41:44;;;;;;;32.03;18.35;;;;;;;;;;5027537;28;20198;-76
2023/10/21 06:44:10;;;;;;;30.85;18.55;;;;;;;;;;5031428;28;20210;-76
2023/10/21 06:46:35;;;;;;;30.10;17.40;;;;;;;;;;5031536;28;20217;-75
2023/10/21 06:49:01;;;;;;;30.30;16.92;;;;;;;;;;5022718;28;20190;-73
2023/10/21 06:51:27;;;;;;;30.67;16.92;;;;;;;;;;5031391;28;20396;-75
2023/10/21 06:53:53;;;;;;;32.65;17.00;;;;;;;;;;5029373;28;20331;-74
2023/10/21 06:56:18;;;;;;;29.25;16.23;;;;;;;;;;5023969;28;20588;-75
2023/10/21 06:58:47;;;;;;;33.50;18.10;;;;;;;;;;5029933;28;20190;-75
2023/10/21 07:01:13;;;;;;;36.13;17.85;;;;;;;;;;5031463;28;20186;-74
2023/10/21 07:03:38;;;;;;;29.95;17.88;;;;;;;;;;5010083;28;20190;-75
2023/10/21 07:06:04;;;;;;;27.15;16.05;;;;;;;;;;5036108;28;20181;-75
2023/10/21 07:08:29;;;;;;;32.95;17.13;;;;;;;;;;5022603;28;20265;-76
2023/10/21 07:10:55;;;;;;;32.42;18.60;;;;;;;;;;5038509;28;20202;-76
2023/10/21 07:13:20;;;;;;;34.28;17.85;;;;;;;;;;5039267;28;20295;-76
2023/10/21 07:15:47;;;;;;;34.72;17.85;;;;;;;;;;4334067;28;10000314;-76
2023/10/21 07:18:13;;;;;;;37.05;17.88;;;;;;;;;;5027971;28;20190;-76
2023/10/21 07:20:38;;;;;;;30.08;17.10;;;;;;;;;;5035628;28;20186;-75
2023/10/21 07:23:04;;;;;;;29.55;17.25;;;;;;;;;;5007974;28;20261;-75
2023/10/21 07:25:30;;;;;;;28.48;15.70;;;;;;;;;;5038622;28;20198;-74
2023/10/21 07:27:56;;;;;;;27.95;16.88;;;;;;;;;;5009647;28;20217;-75
2023/10/21 07:30:24;;;;;;;30.85;18.50;;;;;;;;;;5014500;28;20214;-75
2023/10/21 07:32:49;;;;;;;28.88;17.13;;;;;;;;;;5012377;28;20194;-75
2023/10/21 07:35:16;;;;;;;33.90;15.57;;;;;;;;;;5023331;28;20266;-73
2023/10/21 07:37:44;;;;;;;25.30;15.15;;;;;;;;;;5021790;28;20617;-74
2023/10/21 07:40:11;;;;;;;23.30;14.73;;;;;;;;;;5016081;28;20198;-76
2023/10/21 07:42:36;;;;;;;27.73;15.40;;;;;;;;;;5022484;28;20194;-73
2023/10/21 07:45:04;;;;;;;28.08;14.55;;;;;;;;;;5024665;28;20655;-75
2023/10/21 07:47:29;;;;;;;27.27;14.25;;;;;;;;;;5020875;28;20194;-74
2023/10/21 07:49:55;;;;;;;24.33;14.30;;;;;;;;;;5033498;28;20209;-73
2023/10/21 07:52:20;;;;;;;23.27;13.75;;;;;;;;;;5032017;28;20198;-73
2023/10/21 07:54:46;;;;;;;23.95;14.35;;;;;;;;;;5031205;28;20293;-73
2023/10/21 07:57:11;;;;;;;25.88;14.00;;;;;;;;;;5045125;28;20237;-76
2023/10/21 07:59:37;;;;;;;22.33;12.55;;;;;;;;;;5031319;28;20305;-75
2023/10/21 08:02:03;;;;;;;26.30;12.40;;;;;;;;;;5030683;28;20202;-73
2023/10/21 08:04:28;;;;;;;26.00;13.15;;;;;;;;;;5027089;28;20597;-72
2023/10/21 08:06:53;;;;;;;23.02;13.20;;;;;;;;;;5037930;28;20181;-74
2023/10/21 08:09:19;;;;;;;19.27;10.43;;;;;;;;;;5050317;28;20236;-73
2023/10/21 08:11:45;;;;;;;14.90;10.30;;;;;;;;;;5032070;28;20196;-72
2023/10/21 08:14:11;;;;;;;18.23;11.48;;;;;;;;;;5027963;28;20683;-72
2023/10/21 08:16:37;;;;;;;18.83;10.80;;;;;;;;;;5025698;28;20230;-72
2023/10/21 08:19:04;;;;;;;21.38;12.00;;;;;;;;;;5033505;28;20259;-74
2023/10/21 08:21:30;;;;;;;21.13;10.65;;;;;;;;;;5031951;28;20190;-73
2023/10/21 08:23:57;;;;;;;16.92;9.88;;;;;;;;;;5027221;28;20285;-72
2023/10/21 08:26:24;;;;;;;12.07;9.40;;;;;;;;;;5043491;28;20182;-72
2023/10/21 08:28:49;;;;;;;13.55;9.52;;;;;;;;;;5021220;28;20249;-72
2023/10/21 08:31:15;;;;;;;14.52;8.10;;;;;;;;;;5034911;28;20190;-73
2023/10/21 08:33:40;;;;;;;16.30;7.50;;;;;;;;;;5021736;28;20191;-71
2023/10/21 08:36:17;;;;;;;9.77;6.57;;;;;;;;;;5029646;28;20212;-72
2023/10/21 08:38:43;;;;;;;10.40;6.20;;;;;;;;;;5024409;28;20194;-72
2023/10/21 08:41:12;;;;;;;14.65;6.93;;;;;;;;;;5023587;28;20254;-73
2023/10/21 08:43:39;;;;;;;15.50;6.28;;;;;;;;;;5018475;28;20206;-71
2023/10/21 08:46:06;;;;;;;6.45;5.32;;;;;;;;;;5019670;28;20201;-76
2023/10/21 08:48:34;;;;;;;8.98;4.35;;;;;;;;;;5030849;28;20235;-73
2023/10/21 08:51:02;;;;;;;10.25;4.43;;;;;;;;;;5023535;28;20241;-78
2023/10/21 08:53:31;;;;;;;7.32;4.22;;;;;;;;;;5032942;28;20197;-75
2023/10/21 08:55:57;;;;;;;7.38;3.65;;;;;;;;;;5035843;28;20210;-74
2023/10/21 08:58:28;;;;;;;7.05;3.80;;;;;;;;;;5031350;28;20625;-75
2023/10/21 09:00:54;;;;;;;9.98;3.00;;;;;;;;;;5032433;28;20209;-73
2023/10/21 09:03:19;;;;;;;4.72;2.92;;;;;;;;;;5022715;28;20195;-72
2023/10/21 09:06:10;;;;;;;2.70;2.35;;;;;;;;;;5026060;28;20205;-73
2023/10/21 09:08:37;;;;;;;4.53;2.30;;;;;;;;;;5030523;28;20630;-72
2023/10/21 09:11:06;;;;;;;5.10;2.22;;;;;;;;;;5040390;28;20185;-73
2023/10/21 09:13:36;;;;;;;4.38;2.03;;;;;;;;;;5027194;28;20273;-75
2023/10/21 09:16:04;;;;;;;3.55;1.80;;;;;;;;;;5019710;28;20235;-72
2023/10/21 09:18:31;;;;;;;2.25;1.80;;;;;;;;;;5025535;28;20233;-75
2023/10/21 09:20:57;;;;;;;4.30;2.22;;;;;;;;;;5035045;28;20186;-74
2023/10/21 09:23:22;;;;;;;4.30;1.75;;;;;;;;;;5032362;28;20190;-72
2023/10/21 09:25:49;;;;;;;4.45;1.80;;;;;;;;;;5033608;28;20545;-73
2023/10/21 09:28:23;;;;;;;3.10;2.00;;;;;;;;;;5034403;28;20194;-76
2023/10/21 09:30:58;;;;;;;2.30;1.63;;;;;;;;;;5045080;28;20202;-77
2023/10/21 09:33:28;;;;;;;1.98;1.50;;;;;;;;;;5046807;28;20196;-75
2023/10/21 09:36:01;;;;;;;3.15;1.50;;;;;;;;;;5016489;28;20292;-74
2023/10/21 09:38:26;;;;;;;9.23;1.50;;;;;;;;;;5028816;28;20597;-77
2023/10/21 09:40:53;;;;;;;2.63;1.30;;;;;;;;;;5018338;28;20198;-74
2023/10/21 09:43:21;;;;;;;1.52;1.10;;;;;;;;;;5037114;28;20217;-76
2023/10/21 09:45:49;;;;;;;1.88;0.82;;;;;;;;;;5035908;28;20200;-77
2023/10/21 09:48:15;;;;;;;1.42;0.80;;;;;;;;;;5034833;28;20182;-74
2023/10/21 09:50:51;;;;;;;3.72;1.00;;;;;;;;;;5022818;28;20513;-75
2023/10/21 09:53:20;;;;;;;1.80;0.70;;;;;;;;;;5040217;28;20192;-72
2023/10/21 09:55:47;;;;;;;2.33;0.73;;;;;;;;;;5040921;28;20724;-75
2023/10/21 09:58:15;;;;;;;3.33;0.85;;;;;;;;;;5041018;28;20194;-74
2023/10/21 10:00:40;;;;;;;2.38;1.00;;;;;;;;;;5039055;28;20619;-74
2023/10/21 10:03:06;;;;;;;3.17;0.73;;;;;;;;;;5029039;28;20234;-74
2023/10/21 10:05:32;;;;;;;1.83;0.60;;;;;;;;;;5021773;28;20229;-74
2023/10/21 10:07:59;;;;;;;2.22;1.00;;;;;;;;;;5021516;28;20269;-74
2023/10/21 10:10:25;;;;;;;1.40;0.98;;;;;;;;;;4338361;28;10000775;-71
2023/10/21 10:13:09;;;;;;;2.55;0.73;;;;;;;;;;5034742;28;20193;-70
2023/10/21 10:15:39;;;;;;;1.50;0.43;;;;;;;;;;5026246;28;20233;-73
2023/10/21 10:18:18;;;;;;;1.73;0.50;;;;;;;;;;5022360;28;20243;-70
2023/10/21 10:20:51;;;;;;;1.42;0.50;;;;;;;;;;5025916;28;20675;-72
2023/10/21 10:23:18;;;;;;;2.58;0.40;;;;;;;;;;5021761;28;20533;-70
2023/10/21 10:25:46;;;;;;;2.67;0.50;;;;;;;;;;5020792;28;20271;-71
2023/10/21 10:28:25;;;;;;;1.48;0.40;;;;;;;;;;5043425;28;20185;-74
2023/10/21 10:30:52;;;;;;;2.58;0.43;;;;;;;;;;5026692;28;20375;-71
2023/10/21 10:33:22;;;;;;;0.55;0.30;;;;;;;;;;5030315;28;20705;-71
2023/10/21 10:35:52;;;;;;;2.53;0.50;;;;;;;;;;5030234;28;20627;-71
2023/10/21 10:38:20;;;;;;;2.80;0.50;;;;;;;;;;5013856;28;20269;-73
2023/10/21 10:40:46;;;;;;;4.07;0.47;;;;;;;;;;5039000;28;20204;-70
2023/10/21 10:43:15;;;;;;;3.13;0.50;;;;;;;;;;5029027;28;20275;-71
2023/10/21 10:45:41;;;;;;;1.35;0.50;;;;;;;;;;5025201;28;20250;-71
2023/10/21 10:48:07;;;;;;;1.60;0.40;;;;;;;;;;5030008;28;20669;-70
2023/10/21 10:50:36;;;;;;;3.60;0.50;;;;;;;;;;5027611;28;20671;-69
2023/10/21 10:53:17;;;;;;;1.85;0.50;;;;;;;;;;5046988;28;20217;-69
2023/10/21 10:55:45;;;;;;;2.85;0.40;;;;;;;;;;5028705;28;20194;-71
2023/10/21 10:58:11;;;;;;;1.83;0.40;;;;;;;;;;5049645;28;20726;-69
2023/10/21 11:00:39;;;;;;;1.15;0.40;;;;;;;;;;5032586;28;20197;-69
2023/10/21 11:03:08;;;;;;;1.80;0.50;;;;;;;;;;5034124;28;20182;-69
2023/10/21 11:05:37;;;;;;;2.40;0.30;;;;;;;;;;5027682;28;20202;-70
2023/10/21 11:08:04;;;;;;;1.88;0.55;;;;;;;;;;5030028;28;20190;-72
2023/10/21 11:10:30;;;;;;;1.42;0.30;;;;;;;;;;5041012;28;20248;-69
2023/10/21 11:12:56;;;;;;;6.72;0.90;;;;;;;;;;5025671;28;20186;-69
2023/10/21 11:15:23;;;;;;;1.98;0.30;;;;;;;;;;5022546;28;20233;-70
2023/10/21 11:17:48;;;;;;;3.92;0.60;;;;;;;;;;5025531;28;20260;-72
2023/10/21 11:20:15;;;;;;;3.90;0.40;;;;;;;;;;5043904;28;20194;-69
2023/10/21 11:22:43;;;;;;;1.83;0.40;;;;;;;;;;5019212;28;20754;-70
2023/10/21 11:25:09;;;;;;;1.73;0.40;;;;;;;;;;5040317;28;20292;-68
2023/10/21 11:27:36;;;;;;;2.85;0.40;;;;;;;;;;5028157;28;20266;-70
2023/10/21 11:30:07;;;;;;;2.70;0.40;;;;;;;;;;5027863;28;20195;-70
2023/10/21 11:32:35;;;;;;;3.05;0.60;;;;;;;;;;5029913;28;20197;-68
2023/10/21 11:35:05;;;;;;;4.95;0.60;;;;;;;;;;5027437;28;20221;-70
2023/10/21 11:37:31;;;;;;;3.80;0.50;;;;;;;;;;5025180;28;20270;-71
2023/10/21 11:39:58;;;;;;;1.92;0.63;;;;;;;;;;5021786;28;20198;-72
2023/10/21 11:42:23;;;;;;;3.03;0.60;;;;;;;;;;5015773;28;20199;-71
2023/10/21 11:45:00;;;;;;;1.90;0.50;;;;;;;;;;5032548;28;20193;-70
2023/10/21 11:47:27;;;;;;;1.95;0.50;;;;;;;;;;5025752;28;20189;-69
2023/10/21 11:49:54;;;;;;;5.15;0.50;;;;;;;;;;5026585;28;20190;-68
2023/10/21 11:52:21;;;;;;;1.90;0.70;;;;;;;;;;5021812;28;20327;-69
2023/10/21 11:55:18;;;;;;;0.90;0.30;;;;;;;;;;5026530;28;20211;-70
2023/10/21 12:14:03;;;;;;;2.42;0.60;;;;;;;;;;4990905;28;20195;-71
2023/10/21 12:16:33;;;;;;;6.95;0.70;;;;;;;;;;5020012;28;20226;-72
2023/10/21 12:22:20;;;;;;;4.80;0.88;;;;;;;;;;5020055;28;20201;-71
2023/10/21 12:30:43;;;;;;;2.20;0.52;;;;;;;;;;5021107;28;20208;-68
2023/10/21 12:35:52;;;;;;;2.38;0.50;;;;;;;;;;5036605;28;20187;-69
2023/10/21 12:38:38;;;;;;;3.33;0.50;;;;;;;;;;5035813;28;20204;-68
2023/10/21 12:43:38;;;;;;;5.03;0.93;;;;;;;;;;5023610;28;20190;-68
2023/10/21 12:46:19;;;;;;;2.65;0.93;;;;;;;;;;5033563;28;20194;-72
2023/10/21 12:48:47;;;;;;;3.47;0.93;;;;;;;;;;5024978;28;20559;-67
2023/10/21 12:51:15;;;;;;;3.90;1.05;;;;;;;;;;5025903;28;20192;-69
2023/10/21 12:53:41;;;;;;;3.33;1.10;;;;;;;;;;4347490;28;10000729;-67
2023/10/21 12:56:07;;;;;;;4.20;1.00;;;;;;;;;;5021892;28;20260;-68
2023/10/21 12:58:33;;;;;;;4.25;1.40;;;;;;;;;;5026768;28;20213;-67
2023/10/21 13:00:58;;;;;;;2.53;1.00;;;;;;;;;;5028158;28;20190;-67
2023/10/21 13:03:24;;;;;;;3.67;1.00;;;;;;;;;;5029092;28;20208;-68
2023/10/21 13:05:52;;;;;;;3.15;1.10;;;;;;;;;;5029349;28;20194;-69
2023/10/21 13:08:17;;;;;;;3.83;1.00;;;;;;;;;;5025397;28;20183;-66
2023/10/21 13:10:43;;;;;;;4.20;0.90;;;;;;;;;;5034212;28;20190;-67
2023/10/21 13:13:11;;;;;;;2.72;0.90;;;;;;;;;;5033208;28;20225;-67
2023/10/21 13:15:37;;;;;;;2.42;0.70;;;;;;;;;;5020186;28;20705;-67
2023/10/21 13:18:03;;;;;;;5.20;0.73;;;;;;;;;;5021849;28;20553;-68
2023/10/21 13:20:29;;;;;;;4.78;0.90;;;;;;;;;;5025688;28;20279;-69
2023/10/21 13:22:55;;;;;;;2.35;0.63;;;;;;;;;;5031230;28;20198;-67
2023/10/21 13:25:21;;;;;;;1.98;0.60;;;;;;;;;;5028502;28;20190;-67
2023/10/21 13:27:47;;;;;;;4.03;0.70;;;;;;;;;;5028699;28;20236;-68
2023/10/21 13:30:15;;;;;;;2.50;0.63;;;;;;;;;;5030892;28;20190;-68
2023/10/21 13:32:42;;;;;;;2.40;0.70;;;;;;;;;;5032765;28;20269;-68
2023/10/21 13:35:10;;;;;;;4.28;0.85;;;;;;;;;;5031797;28;20695;-67
2023/10/21 13:37:40;;;;;;;5.25;0.80;;;;;;;;;;5029479;28;20210;-68
2023/10/21 13:40:14;;;;;;;3.25;0.50;;;;;;;;;;5022137;28;20263;-67
2023/10/21 13:42:51;;;;;;;2.67;0.65;;;;;;;;;;5021393;28;20193;-68
2023/10/21 13:45:21;;;;;;;2.63;0.63;;;;;;;;;;5032987;28;20200;-69
2023/10/21 13:47:52;;;;;;;2.83;0.70;;;;;;;;;;5023736;28;20264;-69
2023/10/21 13:50:25;;;;;;;1.42;0.60;;;;;;;;;;5025164;28;20692;-68
2023/10/21 13:52:57;;;;;;;4.07;0.80;;;;;;;;;;5020000;28;20661;-71
2023/10/21 13:55:23;;;;;;;19.63;2.83;;;;;;;;;;5025580;28;20688;-68
2023/10/21 13:57:49;;;;;;;5.28;1.25;;;;;;;;;;5029120;28;20312;-73
2023/10/21 14:00:34;;;;;;;4.72;1.00;;;;;;;;;;5027358;28;20186;-68
2023/10/21 14:03:10;;;;;;;5.00;1.05;;;;;;;;;;5022473;28;20186;-68
2023/10/21 14:05:43;;;;;;;5.78;0.80;;;;;;;;;;5018511;28;20194;-70
2023/10/21 14:08:14;;;;;;;6.68;1.20;;;;;;;;;;5031751;28;20282;-68
2023/10/21 14:10:49;;;;;;;3.35;0.80;;;;;;;;;;5014133;28;20234;-68
2023/10/21 14:13:19;;;;;;;4.53;1.20;;;;;;;;;;5024823;28;20183;-67
2023/10/21 14:15:48;;;;;;;6.93;1.05;;;;;;;;;;5023229;28;20234;-68
2023/10/21 14:18:14;;;;;;;3.42;1.10;;;;;;;;;;5018892;28;20246;-68
2023/10/21 14:20:40;;;;;;;4.88;1.08;;;;;;;;;;5043708;28;20665;-69
2023/10/21 14:23:10;;;;;;;7.05;0.90;;;;;;;;;;5025036;28;20181;-68
2023/10/21 14:25:40;;;;;;;3.45;0.75;;;;;;;;;;5046048;28;20194;-68
2023/10/21 14:28:13;;;;;;;4.13;0.70;;;;;;;;;;5032785;28;20233;-72
2023/10/21 14:30:42;;;;;;;5.90;1.15;;;;;;;;;;5021673;28;20198;-67
2023/10/21 14:33:22;;;;;;;5.50;1.08;;;;;;;;;;5017735;28;20196;-67
2023/10/21 14:35:51;;;;;;;6.82;0.90;;;;;;;;;;5025118;28;20217;-68
2023/10/21 14:38:17;;;;;;;5.38;1.10;;;;;;;;;;5028422;28;20261;-68
2023/10/21 14:40:44;;;;;;;8.57;1.58;;;;;;;;;;5030442;28;20308;-67
2023/10/21 14:43:11;;;;;;;6.43;1.20;;;;;;;;;;5036344;28;20264;-67
2023/10/21 14:45:39;;;;;;;4.00;1.20;;;;;;;;;;5020835;28;20260;-67
2023/10/21 14:48:07;;;;;;;4.20;1.05;;;;;;;;;;5019956;28;20605;-68
2023/10/21 14:50:33;;;;;;;5.50;1.25;;;;;;;;;;5016086;28;20187;-68
2023/10/21 14:53:00;;;;;;;7.90;1.40;;;;;;;;;;5022467;28;20205;-68
2023/10/21 14:55:26;;;;;;;5.93;1.08;;;;;;;;;;5017213;28;20190;-66
2023/10/21 14:57:52;;;;;;;6.60;1.02;;;;;;;;;;5023157;28;20260;-66